Airfield :
LOGIN :

Register | Disclaimer

   EN    FR    IT 

 










Legend :    VFR   Marginal VFR   IFR   Intensive IFR   Very Intensive IFR
Visi :
Ceiling :
>= 8 km
>= 3000ft
5 to 8 km
1000 to 3000 ft
1500m to 5 km
500 to 1000 ft
800 to 1500m
200 to 500 ft
< 800m
< 200 ft
Symbols :   Thunderstorms  Fog  Heavy snow  Heavy precipitations  Wind > 20 kt
SIGMETs :     Misc.  Thunderstorms  Icing  Turbulence  Mountain Waves  Volcanic Ashes







- Airport Elevation : 404 ft
- IATA code : WRO


EPWR - Wroclaw

CURRENT METAR :
  • 231400Z 31018KT 9999 FEW020CB SCT030 16/08 Q1017

EXPIRED METARs :
  • 231330Z 30018KT 9999 -SHRA FEW029CB BKN038 14/08 Q1017
  • 231300Z 29016KT 9999 FEW010 FEW020CB BKN040 15/07 Q1017
  • 231230Z 28018G29KT 9999 -SHRA FEW025CB BKN038 14/07 Q1017
  • 231200Z 32019KT 9999 SCT048 17/04 Q1017
  • 231130Z 30019KT 9999 SCT048 16/04 Q1017

TAF TAF EPWR
Valid from the 23 at 12:00 until the 24 at 12:00 UTC


231130Z 2312/2412 27015KT 9999 BKN040
TEMPO 2312/2317 28015G30KT
PROB30 2313/2317 SHRA BKN030CB
PROB40 2322/2406 28015G25KT 4000 RA BKN007 BKN014
No reported NOTAMs for that airfield.



MET'MAP, your aeronautical weather chart ! - Copyright ORBIFLY December 2007 - Disclaimer

ORBIFLY MET'MAP TEAM :

Programming & Development : Alexandra Zaïnal
Concept & Development : Baudouin d'Aumeries
Co-Development & Prog : Marc-Olivier Méhu
Technical & hardware support : Manuel Goepfert

Contact : metmap@orbifly.com




SOURCES & CREDITS :

   NOAA